sensor_id;sensor_type;location;lat;lon;timestamp;P1;durP1;ratioP1;P2;durP2;ratioP2
2257;SDS011;1136;51.574;7.706;2022-12-05T00:00:31;25.30;;;18.87;;
2257;SDS011;1136;51.574;7.706;2022-12-05T00:03:02;24.70;;;18.63;;
2257;SDS011;1136;51.574;7.706;2022-12-05T00:05:30;28.13;;;20.67;;
2257;SDS011;1136;51.574;7.706;2022-12-05T00:07:56;24.20;;;17.73;;
2257;SDS011;1136;51.574;7.706;2022-12-05T00:10:23;24.60;;;19.27;;
2257;SDS011;1136;51.574;7.706;2022-12-05T00:12:50;25.10;;;18.83;;
2257;SDS011;1136;51.574;7.706;2022-12-05T00:15:16;28.13;;;18.20;;
2257;SDS011;1136;51.574;7.706;2022-12-05T00:17:43;33.67;;;18.93;;
2257;SDS011;1136;51.574;7.706;2022-12-05T00:20:09;25.90;;;19.23;;
2257;SDS011;1136;51.574;7.706;2022-12-05T00:22:37;26.37;;;18.27;;
2257;SDS011;1136;51.574;7.706;2022-12-05T00:25:07;25.73;;;19.17;;
2257;SDS011;1136;51.574;7.706;2022-12-05T00:27:34;24.70;;;18.83;;
2257;SDS011;1136;51.574;7.706;2022-12-05T00:30:00;29.20;;;19.57;;
2257;SDS011;1136;51.574;7.706;2022-12-05T00:32:28;29.13;;;20.13;;
2257;SDS011;1136;51.574;7.706;2022-12-05T00:34:55;32.60;;;20.20;;
2257;SDS011;1136;51.574;7.706;2022-12-05T00:37:22;35.30;;;21.17;;
2257;SDS011;1136;51.574;7.706;2022-12-05T00:39:49;32.37;;;20.70;;
2257;SDS011;1136;51.574;7.706;2022-12-05T00:42:16;23.73;;;19.30;;
2257;SDS011;1136;51.574;7.706;2022-12-05T00:44:42;29.57;;;19.23;;
2257;SDS011;1136;51.574;7.706;2022-12-05T00:47:09;31.10;;;19.43;;
2257;SDS011;1136;51.574;7.706;2022-12-05T00:49:35;27.30;;;17.77;;
2257;SDS011;1136;51.574;7.706;2022-12-05T00:52:02;25.27;;;17.70;;
2257;SDS011;1136;51.574;7.706;2022-12-05T00:54:29;28.73;;;20.83;;
2257;SDS011;1136;51.574;7.706;2022-12-05T00:56:56;26.53;;;18.67;;
2257;SDS011;1136;51.574;7.706;2022-12-05T00:59:22;22.87;;;18.83;;
2257;SDS011;1136;51.574;7.706;2022-12-05T01:01:49;25.90;;;19.57;;
2257;SDS011;1136;51.574;7.706;2022-12-05T01:04:21;25.40;;;18.33;;
2257;SDS011;1136;51.574;7.706;2022-12-05T01:06:49;28.17;;;18.67;;
2257;SDS011;1136;51.574;7.706;2022-12-05T01:09:16;27.13;;;19.43;;
2257;SDS011;1136;51.574;7.706;2022-12-05T01:11:45;28.40;;;19.97;;
2257;SDS011;1136;51.574;7.706;2022-12-05T01:14:12;25.27;;;17.60;;
2257;SDS011;1136;51.574;7.706;2022-12-05T01:16:40;30.03;;;20.37;;
2257;SDS011;1136;51.574;7.706;2022-12-05T01:19:11;24.50;;;17.80;;
2257;SDS011;1136;51.574;7.706;2022-12-05T01:21:39;30.80;;;19.40;;
2257;SDS011;1136;51.574;7.706;2022-12-05T01:24:07;25.37;;;18.00;;
2257;SDS011;1136;51.574;7.706;2022-12-05T01:26:34;33.30;;;20.23;;
2257;SDS011;1136;51.574;7.706;2022-12-05T01:29:00;26.63;;;18.77;;
2257;SDS011;1136;51.574;7.706;2022-12-05T01:31:28;28.10;;;18.13;;
2257;SDS011;1136;51.574;7.706;2022-12-05T01:33:59;28.40;;;20.50;;
2257;SDS011;1136;51.574;7.706;2022-12-05T01:36:27;25.97;;;18.73;;
2257;SDS011;1136;51.574;7.706;2022-12-05T01:38:54;28.83;;;20.67;;
2257;SDS011;1136;51.574;7.706;2022-12-05T01:41:22;26.60;;;18.40;;
2257;SDS011;1136;51.574;7.706;2022-12-05T01:46:32;34.30;;;18.50;;
2257;SDS011;1136;51.574;7.706;2022-12-05T01:51:53;30.40;;;20.70;;
2257;SDS011;1136;51.574;7.706;2022-12-05T01:54:21;24.90;;;19.43;;
2257;SDS011;1136;51.574;7.706;2022-12-05T01:56:49;31.93;;;19.90;;
2257;SDS011;1136;51.574;7.706;2022-12-05T01:59:24;26.43;;;18.00;;
2257;SDS011;1136;51.574;7.706;2022-12-05T02:01:52;30.00;;;18.50;;
2257;SDS011;1136;51.574;7.706;2022-12-05T02:04:19;29.03;;;19.33;;
2257;SDS011;1136;51.574;7.706;2022-12-05T02:06:46;28.93;;;18.33;;
2257;SDS011;1136;51.574;7.706;2022-12-05T02:09:13;27.50;;;18.83;;
2257;SDS011;1136;51.574;7.706;2022-12-05T02:11:54;23.77;;;17.20;;
2257;SDS011;1136;51.574;7.706;2022-12-05T02:14:48;26.37;;;18.47;;
2257;SDS011;1136;51.574;7.706;2022-12-05T02:17:25;25.90;;;18.50;;
2257;SDS011;1136;51.574;7.706;2022-12-05T02:30:17;24.60;;;18.30;;
2257;SDS011;1136;51.574;7.706;2022-12-05T02:43:22;26.13;;;17.77;;
2257;SDS011;1136;51.574;7.706;2022-12-05T02:45:57;27.47;;;17.77;;
2257;SDS011;1136;51.574;7.706;2022-12-05T02:48:26;25.30;;;17.47;;
2257;SDS011;1136;51.574;7.706;2022-12-05T02:50:54;28.63;;;17.60;;
2257;SDS011;1136;51.574;7.706;2022-12-05T02:53:22;24.37;;;17.60;;
2257;SDS011;1136;51.574;7.706;2022-12-05T02:55:50;27.23;;;20.37;;
2257;SDS011;1136;51.574;7.706;2022-12-05T02:58:18;28.47;;;17.60;;
2257;SDS011;1136;51.574;7.706;2022-12-05T03:00:49;25.07;;;17.50;;
2257;SDS011;1136;51.574;7.706;2022-12-05T03:03:17;27.67;;;17.87;;
2257;SDS011;1136;51.574;7.706;2022-12-05T03:05:50;24.70;;;18.00;;
2257;SDS011;1136;51.574;7.706;2022-12-05T03:08:22;26.33;;;18.77;;
2257;SDS011;1136;51.574;7.706;2022-12-05T03:10:51;25.47;;;17.90;;
2257;SDS011;1136;51.574;7.706;2022-12-05T03:13:29;24.60;;;18.53;;
2257;SDS011;1136;51.574;7.706;2022-12-05T03:16:00;30.57;;;18.93;;
2257;SDS011;1136;51.574;7.706;2022-12-05T03:18:31;27.67;;;17.97;;
2257;SDS011;1136;51.574;7.706;2022-12-05T03:21:10;22.07;;;16.90;;
2257;SDS011;1136;51.574;7.706;2022-12-05T03:23:43;28.13;;;19.40;;
2257;SDS011;1136;51.574;7.706;2022-12-05T03:26:17;29.80;;;19.77;;
2257;SDS011;1136;51.574;7.706;2022-12-05T03:31:51;24.37;;;17.30;;
2257;SDS011;1136;51.574;7.706;2022-12-05T03:37:14;27.50;;;19.17;;
2257;SDS011;1136;51.574;7.706;2022-12-05T03:39:48;28.53;;;17.47;;
2257;SDS011;1136;51.574;7.706;2022-12-05T03:42:25;23.10;;;15.97;;
2257;SDS011;1136;51.574;7.706;2022-12-05T03:45:10;22.63;;;16.40;;
2257;SDS011;1136;51.574;7.706;2022-12-05T03:47:42;23.63;;;17.20;;
2257;SDS011;1136;51.574;7.706;2022-12-05T03:50:29;23.27;;;16.20;;
2257;SDS011;1136;51.574;7.706;2022-12-05T03:53:00;24.40;;;17.57;;
2257;SDS011;1136;51.574;7.706;2022-12-05T03:55:51;22.50;;;17.60;;
2257;SDS011;1136;51.574;7.706;2022-12-05T03:58:42;24.30;;;18.03;;
2257;SDS011;1136;51.574;7.706;2022-12-05T04:01:12;27.57;;;16.03;;
2257;SDS011;1136;51.574;7.706;2022-12-05T04:03:42;24.83;;;15.50;;
2257;SDS011;1136;51.574;7.706;2022-12-05T04:06:20;30.70;;;18.00;;
2257;SDS011;1136;51.574;7.706;2022-12-05T04:08:51;24.23;;;16.77;;
2257;SDS011;1136;51.574;7.706;2022-12-05T04:11:20;24.37;;;17.27;;
2257;SDS011;1136;51.574;7.706;2022-12-05T04:13:58;20.00;;;15.97;;
2257;SDS011;1136;51.574;7.706;2022-12-05T04:16:39;26.20;;;16.60;;
2257;SDS011;1136;51.574;7.706;2022-12-05T04:21:55;27.17;;;17.07;;
2257;SDS011;1136;51.574;7.706;2022-12-05T04:24:23;25.30;;;16.23;;
2257;SDS011;1136;51.574;7.706;2022-12-05T04:27:21;24.60;;;16.27;;
2257;SDS011;1136;51.574;7.706;2022-12-05T04:29:56;24.33;;;16.97;;
2257;SDS011;1136;51.574;7.706;2022-12-05T04:32:30;27.77;;;16.50;;
2257;SDS011;1136;51.574;7.706;2022-12-05T04:35:03;23.03;;;16.13;;
2257;SDS011;1136;51.574;7.706;2022-12-05T04:37:33;24.57;;;18.67;;
2257;SDS011;1136;51.574;7.706;2022-12-05T04:40:03;27.57;;;18.27;;
2257;SDS011;1136;51.574;7.706;2022-12-05T04:42:35;25.00;;;16.60;;
2257;SDS011;1136;51.574;7.706;2022-12-05T04:45:06;26.70;;;18.90;;
2257;SDS011;1136;51.574;7.706;2022-12-05T04:47:40;26.53;;;17.90;;
2257;SDS011;1136;51.574;7.706;2022-12-05T04:50:09;28.83;;;18.30;;
2257;SDS011;1136;51.574;7.706;2022-12-05T04:52:37;23.67;;;17.20;;
2257;SDS011;1136;51.574;7.706;2022-12-05T04:58:45;25.63;;;17.57;;
2257;SDS011;1136;51.574;7.706;2022-12-05T05:06:13;27.70;;;18.90;;
2257;SDS011;1136;51.574;7.706;2022-12-05T05:08:47;24.03;;;17.87;;
2257;SDS011;1136;51.574;7.706;2022-12-05T05:11:20;29.10;;;18.87;;
2257;SDS011;1136;51.574;7.706;2022-12-05T05:13:47;24.30;;;16.30;;
2257;SDS011;1136;51.574;7.706;2022-12-05T05:16:15;31.40;;;17.73;;
2257;SDS011;1136;51.574;7.706;2022-12-05T05:18:44;25.30;;;16.67;;
2257;SDS011;1136;51.574;7.706;2022-12-05T05:21:15;25.17;;;16.70;;
2257;SDS011;1136;51.574;7.706;2022-12-05T05:23:45;23.83;;;17.43;;
2257;SDS011;1136;51.574;7.706;2022-12-05T05:26:12;26.10;;;17.17;;
2257;SDS011;1136;51.574;7.706;2022-12-05T05:28:39;24.47;;;17.57;;
2257;SDS011;1136;51.574;7.706;2022-12-05T05:31:06;24.60;;;16.90;;
2257;SDS011;1136;51.574;7.706;2022-12-05T05:33:33;28.93;;;17.60;;
2257;SDS011;1136;51.574;7.706;2022-12-05T05:36:01;23.23;;;15.97;;
2257;SDS011;1136;51.574;7.706;2022-12-05T05:38:38;21.13;;;16.70;;
2257;SDS011;1136;51.574;7.706;2022-12-05T05:41:10;21.57;;;15.43;;
2257;SDS011;1136;51.574;7.706;2022-12-05T05:43:38;23.90;;;15.47;;
2257;SDS011;1136;51.574;7.706;2022-12-05T05:46:05;24.97;;;16.27;;
2257;SDS011;1136;51.574;7.706;2022-12-05T05:48:32;23.10;;;14.80;;
2257;SDS011;1136;51.574;7.706;2022-12-05T05:50:59;27.33;;;17.67;;
2257;SDS011;1136;51.574;7.706;2022-12-05T05:53:26;22.50;;;17.60;;
2257;SDS011;1136;51.574;7.706;2022-12-05T05:55:52;25.63;;;17.37;;
2257;SDS011;1136;51.574;7.706;2022-12-05T05:58:19;28.10;;;18.80;;
2257;SDS011;1136;51.574;7.706;2022-12-05T06:00:45;23.53;;;16.40;;
2257;SDS011;1136;51.574;7.706;2022-12-05T06:03:12;24.97;;;16.20;;
2257;SDS011;1136;51.574;7.706;2022-12-05T06:05:39;21.53;;;16.53;;
2257;SDS011;1136;51.574;7.706;2022-12-05T06:08:05;28.70;;;18.50;;
2257;SDS011;1136;51.574;7.706;2022-12-05T06:10:32;24.83;;;17.00;;
2257;SDS011;1136;51.574;7.706;2022-12-05T06:12:58;24.40;;;17.10;;
2257;SDS011;1136;51.574;7.706;2022-12-05T06:15:25;23.70;;;16.83;;
2257;SDS011;1136;51.574;7.706;2022-12-05T06:17:51;23.83;;;18.33;;
2257;SDS011;1136;51.574;7.706;2022-12-05T06:20:18;24.20;;;18.97;;
2257;SDS011;1136;51.574;7.706;2022-12-05T06:22:44;23.07;;;17.57;;
2257;SDS011;1136;51.574;7.706;2022-12-05T06:25:11;25.67;;;16.73;;
2257;SDS011;1136;51.574;7.706;2022-12-05T06:27:38;25.20;;;17.87;;
2257;SDS011;1136;51.574;7.706;2022-12-05T06:30:04;25.37;;;18.33;;
2257;SDS011;1136;51.574;7.706;2022-12-05T06:32:31;24.30;;;16.43;;
2257;SDS011;1136;51.574;7.706;2022-12-05T06:34:58;26.70;;;17.80;;
2257;SDS011;1136;51.574;7.706;2022-12-05T06:37:25;24.13;;;18.73;;
2257;SDS011;1136;51.574;7.706;2022-12-05T06:39:51;22.90;;;18.60;;
2257;SDS011;1136;51.574;7.706;2022-12-05T06:42:18;23.83;;;18.57;;
2257;SDS011;1136;51.574;7.706;2022-12-05T06:44:44;27.10;;;18.33;;
2257;SDS011;1136;51.574;7.706;2022-12-05T06:47:11;27.03;;;18.60;;
2257;SDS011;1136;51.574;7.706;2022-12-05T06:49:37;26.67;;;20.03;;
2257;SDS011;1136;51.574;7.706;2022-12-05T06:52:04;24.23;;;18.93;;
2257;SDS011;1136;51.574;7.706;2022-12-05T06:54:31;27.63;;;20.67;;
2257;SDS011;1136;51.574;7.706;2022-12-05T06:56:57;28.10;;;21.30;;
2257;SDS011;1136;51.574;7.706;2022-12-05T06:59:24;27.23;;;20.80;;
2257;SDS011;1136;51.574;7.706;2022-12-05T07:01:50;30.00;;;21.80;;
2257;SDS011;1136;51.574;7.706;2022-12-05T07:04:18;29.93;;;19.40;;
2257;SDS011;1136;51.574;7.706;2022-12-05T07:06:49;27.63;;;20.07;;
2257;SDS011;1136;51.574;7.706;2022-12-05T07:09:18;26.73;;;18.63;;
2257;SDS011;1136;51.574;7.706;2022-12-05T07:11:48;30.50;;;20.37;;
2257;SDS011;1136;51.574;7.706;2022-12-05T07:14:15;24.63;;;20.20;;
2257;SDS011;1136;51.574;7.706;2022-12-05T07:17:03;31.53;;;19.33;;
2257;SDS011;1136;51.574;7.706;2022-12-05T07:19:29;28.60;;;23.13;;
2257;SDS011;1136;51.574;7.706;2022-12-05T07:21:56;26.40;;;18.80;;
2257;SDS011;1136;51.574;7.706;2022-12-05T07:24:22;26.37;;;19.30;;
2257;SDS011;1136;51.574;7.706;2022-12-05T07:26:49;22.43;;;16.53;;
2257;SDS011;1136;51.574;7.706;2022-12-05T07:29:15;28.03;;;18.80;;
2257;SDS011;1136;51.574;7.706;2022-12-05T07:31:42;26.30;;;17.90;;
2257;SDS011;1136;51.574;7.706;2022-12-05T07:34:08;24.73;;;17.63;;
2257;SDS011;1136;51.574;7.706;2022-12-05T07:36:35;27.87;;;18.67;;
2257;SDS011;1136;51.574;7.706;2022-12-05T07:39:02;28.97;;;18.80;;
2257;SDS011;1136;51.574;7.706;2022-12-05T07:41:30;25.60;;;18.53;;
2257;SDS011;1136;51.574;7.706;2022-12-05T07:43:58;21.00;;;17.23;;
2257;SDS011;1136;51.574;7.706;2022-12-05T07:46:26;24.43;;;18.47;;
2257;SDS011;1136;51.574;7.706;2022-12-05T07:48:53;24.40;;;17.90;;
2257;SDS011;1136;51.574;7.706;2022-12-05T07:51:20;25.40;;;17.67;;
2257;SDS011;1136;51.574;7.706;2022-12-05T07:53:47;24.50;;;19.57;;
2257;SDS011;1136;51.574;7.706;2022-12-05T07:56:14;23.67;;;19.53;;
2257;SDS011;1136;51.574;7.706;2022-12-05T07:58:43;26.93;;;18.70;;
2257;SDS011;1136;51.574;7.706;2022-12-05T08:03:38;24.27;;;18.50;;
2257;SDS011;1136;51.574;7.706;2022-12-05T08:06:06;22.57;;;17.93;;
2257;SDS011;1136;51.574;7.706;2022-12-05T08:08:34;25.57;;;19.37;;
2257;SDS011;1136;51.574;7.706;2022-12-05T08:11:04;24.47;;;18.80;;
2257;SDS011;1136;51.574;7.706;2022-12-05T08:13:32;23.57;;;18.70;;
2257;SDS011;1136;51.574;7.706;2022-12-05T08:16:00;24.57;;;19.20;;
2257;SDS011;1136;51.574;7.706;2022-12-05T08:18:30;26.60;;;20.10;;
2257;SDS011;1136;51.574;7.706;2022-12-05T08:21:00;30.20;;;21.23;;
2257;SDS011;1136;51.574;7.706;2022-12-05T08:23:31;33.07;;;24.30;;
2257;SDS011;1136;51.574;7.706;2022-12-05T08:26:02;39.30;;;27.23;;
2257;SDS011;1136;51.574;7.706;2022-12-05T08:28:40;32.70;;;23.90;;
2257;SDS011;1136;51.574;7.706;2022-12-05T08:31:11;38.67;;;26.70;;
2257;SDS011;1136;51.574;7.706;2022-12-05T08:33:41;41.53;;;31.30;;
2257;SDS011;1136;51.574;7.706;2022-12-05T08:36:09;30.53;;;23.90;;
2257;SDS011;1136;51.574;7.706;2022-12-05T08:38:37;23.70;;;18.60;;
2257;SDS011;1136;51.574;7.706;2022-12-05T08:41:05;28.67;;;20.10;;
2257;SDS011;1136;51.574;7.706;2022-12-05T08:43:33;30.63;;;21.57;;
2257;SDS011;1136;51.574;7.706;2022-12-05T08:45:59;20.70;;;17.43;;
2257;SDS011;1136;51.574;7.706;2022-12-05T08:48:27;31.23;;;22.50;;
2257;SDS011;1136;51.574;7.706;2022-12-05T08:50:55;29.67;;;22.17;;
2257;SDS011;1136;51.574;7.706;2022-12-05T08:53:22;32.33;;;23.67;;
2257;SDS011;1136;51.574;7.706;2022-12-05T08:55:48;33.63;;;21.90;;
2257;SDS011;1136;51.574;7.706;2022-12-05T08:58:15;31.40;;;20.90;;
2257;SDS011;1136;51.574;7.706;2022-12-05T09:00:42;30.07;;;21.20;;
2257;SDS011;1136;51.574;7.706;2022-12-05T09:03:09;29.00;;;21.40;;
2257;SDS011;1136;51.574;7.706;2022-12-05T09:05:36;27.17;;;20.60;;
2257;SDS011;1136;51.574;7.706;2022-12-05T09:08:03;27.00;;;19.67;;
2257;SDS011;1136;51.574;7.706;2022-12-05T09:10:30;26.60;;;19.87;;
2257;SDS011;1136;51.574;7.706;2022-12-05T09:13:07;27.07;;;21.97;;
2257;SDS011;1136;51.574;7.706;2022-12-05T09:15:36;27.47;;;21.10;;
2257;SDS011;1136;51.574;7.706;2022-12-05T09:18:07;27.53;;;19.77;;
2257;SDS011;1136;51.574;7.706;2022-12-05T09:20:39;26.53;;;18.17;;
2257;SDS011;1136;51.574;7.706;2022-12-05T09:23:06;23.80;;;18.50;;
2257;SDS011;1136;51.574;7.706;2022-12-05T09:25:40;25.83;;;20.13;;
2257;SDS011;1136;51.574;7.706;2022-12-05T09:28:06;30.87;;;20.93;;
2257;SDS011;1136;51.574;7.706;2022-12-05T09:30:32;30.90;;;22.13;;
2257;SDS011;1136;51.574;7.706;2022-12-05T09:32:59;26.77;;;22.80;;
2257;SDS011;1136;51.574;7.706;2022-12-05T09:35:38;27.00;;;19.60;;
2257;SDS011;1136;51.574;7.706;2022-12-05T09:38:05;30.17;;;20.77;;
2257;SDS011;1136;51.574;7.706;2022-12-05T09:40:31;30.43;;;21.20;;
2257;SDS011;1136;51.574;7.706;2022-12-05T09:43:02;28.10;;;20.63;;
2257;SDS011;1136;51.574;7.706;2022-12-05T09:45:34;26.50;;;20.27;;
2257;SDS011;1136;51.574;7.706;2022-12-05T09:48:08;26.63;;;18.80;;
2257;SDS011;1136;51.574;7.706;2022-12-05T09:50:42;26.67;;;20.20;;
2257;SDS011;1136;51.574;7.706;2022-12-05T10:12:20;25.47;;;17.30;;
2257;SDS011;1136;51.574;7.706;2022-12-05T10:15:16;23.77;;;18.00;;
2257;SDS011;1136;51.574;7.706;2022-12-05T10:17:51;25.60;;;19.83;;
2257;SDS011;1136;51.574;7.706;2022-12-05T10:20:27;24.70;;;18.80;;
2257;SDS011;1136;51.574;7.706;2022-12-05T10:26:10;33.80;;;24.47;;
2257;SDS011;1136;51.574;7.706;2022-12-05T10:28:45;27.20;;;23.17;;
2257;SDS011;1136;51.574;7.706;2022-12-05T10:31:15;25.03;;;20.90;;
2257;SDS011;1136;51.574;7.706;2022-12-05T10:33:46;24.93;;;18.63;;
2257;SDS011;1136;51.574;7.706;2022-12-05T10:36:15;22.93;;;18.00;;
2257;SDS011;1136;51.574;7.706;2022-12-05T10:38:43;25.43;;;19.27;;
2257;SDS011;1136;51.574;7.706;2022-12-05T10:41:11;23.53;;;19.03;;
2257;SDS011;1136;51.574;7.706;2022-12-05T10:43:40;23.37;;;19.07;;
2257;SDS011;1136;51.574;7.706;2022-12-05T10:46:09;25.70;;;19.30;;
2257;SDS011;1136;51.574;7.706;2022-12-05T10:48:42;24.83;;;19.10;;
2257;SDS011;1136;51.574;7.706;2022-12-05T10:51:14;23.80;;;19.50;;
2257;SDS011;1136;51.574;7.706;2022-12-05T10:53:43;23.30;;;17.93;;
2257;SDS011;1136;51.574;7.706;2022-12-05T10:56:35;21.57;;;18.10;;
2257;SDS011;1136;51.574;7.706;2022-12-05T10:59:02;23.20;;;17.43;;
2257;SDS011;1136;51.574;7.706;2022-12-05T11:01:31;27.87;;;19.27;;
2257;SDS011;1136;51.574;7.706;2022-12-05T11:03:59;22.57;;;17.77;;
2257;SDS011;1136;51.574;7.706;2022-12-05T11:06:28;26.60;;;17.80;;
2257;SDS011;1136;51.574;7.706;2022-12-05T11:08:57;24.70;;;17.00;;
2257;SDS011;1136;51.574;7.706;2022-12-05T11:14:24;22.07;;;18.00;;
2257;SDS011;1136;51.574;7.706;2022-12-05T11:16:58;26.10;;;18.23;;
2257;SDS011;1136;51.574;7.706;2022-12-05T11:19:30;27.53;;;21.10;;
2257;SDS011;1136;51.574;7.706;2022-12-05T11:22:04;27.17;;;20.80;;
2257;SDS011;1136;51.574;7.706;2022-12-05T11:24:34;22.47;;;18.13;;
2257;SDS011;1136;51.574;7.706;2022-12-05T11:29:41;29.33;;;20.33;;
2257;SDS011;1136;51.574;7.706;2022-12-05T11:32:18;29.57;;;20.63;;
2257;SDS011;1136;51.574;7.706;2022-12-05T11:37:52;27.67;;;21.83;;
2257;SDS011;1136;51.574;7.706;2022-12-05T11:45:47;27.20;;;20.10;;
2257;SDS011;1136;51.574;7.706;2022-12-05T11:51:05;40.60;;;30.27;;
2257;SDS011;1136;51.574;7.706;2022-12-05T11:56:38;38.80;;;27.40;;
2257;SDS011;1136;51.574;7.706;2022-12-05T11:59:12;30.03;;;21.87;;
2257;SDS011;1136;51.574;7.706;2022-12-05T12:02:06;28.47;;;21.50;;
2257;SDS011;1136;51.574;7.706;2022-12-05T12:10:32;28.23;;;20.50;;
2257;SDS011;1136;51.574;7.706;2022-12-05T12:13:09;22.17;;;18.67;;
2257;SDS011;1136;51.574;7.706;2022-12-05T12:15:57;32.10;;;22.73;;
2257;SDS011;1136;51.574;7.706;2022-12-05T12:24:14;28.13;;;19.00;;
2257;SDS011;1136;51.574;7.706;2022-12-05T12:29:53;25.53;;;19.03;;
2257;SDS011;1136;51.574;7.706;2022-12-05T12:40:29;27.00;;;19.60;;
2257;SDS011;1136;51.574;7.706;2022-12-05T12:43:06;22.10;;;17.60;;
2257;SDS011;1136;51.574;7.706;2022-12-05T12:51:53;23.77;;;17.53;;
2257;SDS011;1136;51.574;7.706;2022-12-05T12:54:33;29.90;;;20.83;;
2257;SDS011;1136;51.574;7.706;2022-12-05T13:00:22;26.70;;;19.70;;
2257;SDS011;1136;51.574;7.706;2022-12-05T13:02:58;23.50;;;19.27;;
2257;SDS011;1136;51.574;7.706;2022-12-05T13:05:41;28.70;;;21.23;;
2257;SDS011;1136;51.574;7.706;2022-12-05T13:10:47;31.80;;;23.23;;
2257;SDS011;1136;51.574;7.706;2022-12-05T13:13:21;33.53;;;22.90;;
2257;SDS011;1136;51.574;7.706;2022-12-05T13:15:51;30.00;;;22.27;;
2257;SDS011;1136;51.574;7.706;2022-12-05T13:18:21;25.83;;;20.17;;
2257;SDS011;1136;51.574;7.706;2022-12-05T13:20:50;35.60;;;27.75;;
2257;SDS011;1136;51.574;7.706;2022-12-05T13:23:20;25.20;;;18.73;;
2257;SDS011;1136;51.574;7.706;2022-12-05T13:25:48;30.03;;;19.83;;
2257;SDS011;1136;51.574;7.706;2022-12-05T13:28:34;22.53;;;17.87;;
2257;SDS011;1136;51.574;7.706;2022-12-05T13:31:08;23.60;;;18.00;;
2257;SDS011;1136;51.574;7.706;2022-12-05T13:33:56;18.07;;;16.17;;
2257;SDS011;1136;51.574;7.706;2022-12-05T13:36:21;21.17;;;15.37;;
2257;SDS011;1136;51.574;7.706;2022-12-05T13:41:58;20.60;;;18.07;;
2257;SDS011;1136;51.574;7.706;2022-12-05T13:44:55;21.60;;;17.77;;
2257;SDS011;1136;51.574;7.706;2022-12-05T13:50:14;23.47;;;18.43;;
2257;SDS011;1136;51.574;7.706;2022-12-05T13:52:47;24.43;;;18.80;;
2257;SDS011;1136;51.574;7.706;2022-12-05T13:58:03;20.70;;;17.70;;
2257;SDS011;1136;51.574;7.706;2022-12-05T14:00:48;26.30;;;20.17;;
2257;SDS011;1136;51.574;7.706;2022-12-05T14:06:00;19.20;;;17.10;;
2257;SDS011;1136;51.574;7.706;2022-12-05T14:15:51;25.90;;;19.30;;
2257;SDS011;1136;51.574;7.706;2022-12-05T14:21:23;23.63;;;18.77;;
2257;SDS011;1136;51.574;7.706;2022-12-05T14:24:35;21.53;;;16.70;;
2257;SDS011;1136;51.574;7.706;2022-12-05T14:27:11;25.20;;;18.47;;
2257;SDS011;1136;51.574;7.706;2022-12-05T14:30:02;23.00;;;17.57;;
2257;SDS011;1136;51.574;7.706;2022-12-05T14:32:37;23.93;;;18.67;;
2257;SDS011;1136;51.574;7.706;2022-12-05T14:37:51;25.20;;;18.40;;
2257;SDS011;1136;51.574;7.706;2022-12-05T14:47:57;25.43;;;18.27;;
2257;SDS011;1136;51.574;7.706;2022-12-05T14:55:47;23.17;;;18.60;;
2257;SDS011;1136;51.574;7.706;2022-12-05T14:58:17;23.80;;;18.57;;
2257;SDS011;1136;51.574;7.706;2022-12-05T15:00:45;26.93;;;19.73;;
2257;SDS011;1136;51.574;7.706;2022-12-05T15:03:24;22.17;;;17.77;;
2257;SDS011;1136;51.574;7.706;2022-12-05T15:05:56;25.40;;;19.00;;
2257;SDS011;1136;51.574;7.706;2022-12-05T15:08:29;22.30;;;19.07;;
2257;SDS011;1136;51.574;7.706;2022-12-05T15:10:58;24.03;;;19.23;;
2257;SDS011;1136;51.574;7.706;2022-12-05T15:13:25;26.47;;;22.07;;
2257;SDS011;1136;51.574;7.706;2022-12-05T15:18:50;26.33;;;19.50;;
2257;SDS011;1136;51.574;7.706;2022-12-05T15:21:34;25.50;;;19.80;;
2257;SDS011;1136;51.574;7.706;2022-12-05T15:24:04;26.50;;;19.97;;
2257;SDS011;1136;51.574;7.706;2022-12-05T15:26:43;26.03;;;20.63;;
2257;SDS011;1136;51.574;7.706;2022-12-05T15:31:56;26.17;;;21.70;;
2257;SDS011;1136;51.574;7.706;2022-12-05T15:37:37;27.73;;;19.97;;
2257;SDS011;1136;51.574;7.706;2022-12-05T15:40:12;29.03;;;20.27;;
2257;SDS011;1136;51.574;7.706;2022-12-05T15:42:53;28.37;;;19.67;;
2257;SDS011;1136;51.574;7.706;2022-12-05T15:47:50;27.00;;;21.23;;
2257;SDS011;1136;51.574;7.706;2022-12-05T15:55:56;25.17;;;19.37;;
2257;SDS011;1136;51.574;7.706;2022-12-05T15:58:31;26.90;;;20.00;;
2257;SDS011;1136;51.574;7.706;2022-12-05T16:01:04;23.37;;;18.80;;
2257;SDS011;1136;51.574;7.706;2022-12-05T16:03:44;26.10;;;20.37;;
2257;SDS011;1136;51.574;7.706;2022-12-05T16:08:49;22.07;;;18.50;;
2257;SDS011;1136;51.574;7.706;2022-12-05T16:11:16;21.43;;;18.63;;
2257;SDS011;1136;51.574;7.706;2022-12-05T16:13:50;22.43;;;18.60;;
2257;SDS011;1136;51.574;7.706;2022-12-05T16:16:18;22.90;;;18.30;;
2257;SDS011;1136;51.574;7.706;2022-12-05T16:18:57;25.03;;;18.53;;
2257;SDS011;1136;51.574;7.706;2022-12-05T16:21:35;22.73;;;16.73;;
2257;SDS011;1136;51.574;7.706;2022-12-05T16:26:37;23.17;;;19.40;;
2257;SDS011;1136;51.574;7.706;2022-12-05T16:29:05;23.60;;;19.13;;
2257;SDS011;1136;51.574;7.706;2022-12-05T16:31:34;24.40;;;20.50;;
2257;SDS011;1136;51.574;7.706;2022-12-05T16:34:05;22.73;;;18.23;;
2257;SDS011;1136;51.574;7.706;2022-12-05T16:36:33;21.47;;;18.13;;
2257;SDS011;1136;51.574;7.706;2022-12-05T16:39:00;22.63;;;17.67;;
2257;SDS011;1136;51.574;7.706;2022-12-05T16:41:33;20.80;;;17.00;;
2257;SDS011;1136;51.574;7.706;2022-12-05T16:44:03;22.80;;;16.43;;
2257;SDS011;1136;51.574;7.706;2022-12-05T16:46:41;19.90;;;15.33;;
2257;SDS011;1136;51.574;7.706;2022-12-05T16:49:16;22.60;;;16.50;;
2257;SDS011;1136;51.574;7.706;2022-12-05T16:51:52;24.90;;;16.70;;
2257;SDS011;1136;51.574;7.706;2022-12-05T16:54:24;17.50;;;14.03;;
2257;SDS011;1136;51.574;7.706;2022-12-05T16:56:50;19.50;;;16.07;;
2257;SDS011;1136;51.574;7.706;2022-12-05T16:59:21;19.10;;;15.40;;
2257;SDS011;1136;51.574;7.706;2022-12-05T17:01:50;23.47;;;15.53;;
2257;SDS011;1136;51.574;7.706;2022-12-05T17:04:17;19.73;;;15.37;;
2257;SDS011;1136;51.574;7.706;2022-12-05T17:06:44;22.83;;;17.10;;
2257;SDS011;1136;51.574;7.706;2022-12-05T17:09:10;19.60;;;14.97;;
2257;SDS011;1136;51.574;7.706;2022-12-05T17:11:38;23.37;;;17.20;;
2257;SDS011;1136;51.574;7.706;2022-12-05T17:14:07;21.67;;;16.50;;
2257;SDS011;1136;51.574;7.706;2022-12-05T17:16:37;21.80;;;18.00;;
2257;SDS011;1136;51.574;7.706;2022-12-05T17:19:03;19.47;;;16.17;;
2257;SDS011;1136;51.574;7.706;2022-12-05T17:21:31;17.50;;;15.70;;
2257;SDS011;1136;51.574;7.706;2022-12-05T17:23:59;17.87;;;15.80;;
2257;SDS011;1136;51.574;7.706;2022-12-05T17:26:26;21.33;;;15.57;;
2257;SDS011;1136;51.574;7.706;2022-12-05T17:28:52;19.80;;;16.33;;
2257;SDS011;1136;51.574;7.706;2022-12-05T17:31:20;22.70;;;16.33;;
2257;SDS011;1136;51.574;7.706;2022-12-05T17:33:48;19.50;;;16.57;;
2257;SDS011;1136;51.574;7.706;2022-12-05T17:36:16;22.63;;;17.27;;
2257;SDS011;1136;51.574;7.706;2022-12-05T17:38:42;18.50;;;16.10;;
2257;SDS011;1136;51.574;7.706;2022-12-05T17:41:17;19.70;;;15.90;;
2257;SDS011;1136;51.574;7.706;2022-12-05T17:43:45;23.70;;;15.83;;
2257;SDS011;1136;51.574;7.706;2022-12-05T17:46:17;22.50;;;16.20;;
2257;SDS011;1136;51.574;7.706;2022-12-05T17:48:45;17.73;;;15.30;;
2257;SDS011;1136;51.574;7.706;2022-12-05T17:51:12;18.93;;;15.83;;
2257;SDS011;1136;51.574;7.706;2022-12-05T17:53:40;19.63;;;16.00;;
2257;SDS011;1136;51.574;7.706;2022-12-05T17:56:07;21.50;;;17.00;;
2257;SDS011;1136;51.574;7.706;2022-12-05T17:58:34;24.73;;;16.70;;
2257;SDS011;1136;51.574;7.706;2022-12-05T18:01:01;21.03;;;16.73;;
2257;SDS011;1136;51.574;7.706;2022-12-05T18:03:27;19.17;;;15.47;;
2257;SDS011;1136;51.574;7.706;2022-12-05T18:05:54;19.37;;;15.83;;
2257;SDS011;1136;51.574;7.706;2022-12-05T18:08:21;18.70;;;15.87;;
2257;SDS011;1136;51.574;7.706;2022-12-05T18:10:49;22.57;;;16.50;;